KTOA/TOA METAR and TAF weather

Enter ICAO airport designator
Station Type Date Time Source
KTOA METAR 2022/06/28 15:47 UTC NOAA

KTOA 281547Z 32004KT 4SM FG SCT002 23/18 A3001


Station Type Date Time Source
KTOA Decoded METAR 2022/06/28 15:47 UTC NOAA

Torrance, Zamperini Field Airport, CA, United States (KTOA) 33-48N 118-20W
Jun 28, 2022 - 11:47 AM EDT / 2022.06.28 1547 UTC
Wind: from the NW (320 degrees) at 5 MPH (4 KT):0
Visibility: 4 mile(s):0
Sky conditions: partly cloudy
Weather: fog
Temperature: 73 F (23 C)
Dew Point: 64 F (18 C)
Relative Humidity: 73%
Pressure (altimeter): 30.01 in. Hg (1016 hPa)
ob: KTOA 281547Z 32004KT 4SM FG SCT002 23/18 A3001
cycle: 16

Station Type Date Time Source
KTOA TAF UTC NOAA

Error!

Example: see airport list